Time;durP1;ratioP1;P1;durP2;ratioP2;P2;SDS_P1;SDS_P2;PMS_P1;PMS_P2;Temp;Humidity;BMP_temperature;BMP_pressure;BME280_temperature;BME280_humidity;BME280_pressure;Samples;Min_cycle;Max_cycle;Signal;HPM_P1;HPM_P2
2022/07/06 00:00:49;;;;;;;;;;;18.10;91.80;;;;;;5211900;28;19932;-71
2022/07/06 00:03:21;;;;;;;;;;;18.10;91.80;;;;;;5201405;28;20398;-70
2022/07/06 00:05:54;;;;;;;;;;;18.20;91.90;;;;;;5226998;28;19932;-70
2022/07/06 00:08:26;;;;;;;;;;;18.10;92.40;;;;;;5229913;28;19931;-70
2022/07/06 00:10:58;;;;;;;;;;;18.10;92.40;;;;;;5211723;28;19925;-71
2022/07/06 00:13:31;;;;;;;;;;;18.10;93.40;;;;;;5229942;28;19925;-71
2022/07/06 00:16:03;;;;;;;;;;;18.10;93.10;;;;;;5218583;28;19928;-71
2022/07/06 00:18:35;;;;;;;;;;;18.10;94.30;;;;;;5224658;28;19924;-70
2022/07/06 00:21:08;;;;;;;;;;;18.10;94.60;;;;;;5229649;28;19938;-72
2022/07/06 00:23:40;;;;;;;;;;;18.10;95.10;;;;;;5226012;28;19924;-69
2022/07/06 00:26:13;;;;;;;;;;;18.10;96.10;;;;;;5227141;28;19931;-72
2022/07/06 00:28:45;;;;;;;;;;;18.10;96.70;;;;;;5226507;28;19935;-69
2022/07/06 00:31:17;;;;;;;;;;;18.20;96.40;;;;;;5228699;28;19924;-70
2022/07/06 00:33:50;;;;;;;;;;;18.10;97.70;;;;;;5229479;28;19939;-72
2022/07/06 00:36:22;;;;;;;;;;;18.20;96.90;;;;;;5224398;28;20284;-72
2022/07/06 00:38:55;;;;;;;;;;;18.20;97.00;;;;;;5215940;28;19920;-70
2022/07/06 00:41:27;;;;;;;;;;;18.20;98.00;;;;;;5214113;28;19924;-72
2022/07/06 00:43:59;;;;;;;;;;;18.10;98.00;;;;;;5191372;28;19975;-70
2022/07/06 00:46:32;;;;;;;;;;;18.10;99.20;;;;;;5221307;28;20028;-72
2022/07/06 00:49:05;;;;;;;;;;;18.00;99.90;;;;;;5217471;28;20314;-72
2022/07/06 00:51:37;;;;;;;;;;;17.90;99.90;;;;;;5216191;28;19931;-71
2022/07/06 00:54:09;;;;;;;;;;;17.90;99.90;;;;;;5223808;28;19924;-71
2022/07/06 00:56:42;;;;;;;;;;;17.80;99.90;;;;;;5211930;28;19925;-72
2022/07/06 00:59:14;;;;;;;;;;;17.80;99.90;;;;;;5223962;28;19931;-72
2022/07/06 01:01:47;;;;;;;;;;;;;;;;;;5206044;28;19935;-72
2022/07/06 01:04:20;;;;;;;;;;;;;;;;;;5218954;28;19955;-70
2022/07/06 01:06:53;;;;;;;;;;;;;;;;;;5205464;28;20469;-70
2022/07/06 01:09:25;;;;;;;;;;;;;;;;;;5214987;28;19932;-69
2022/07/06 01:11:58;;;;;;;;;;;;;;;;;;5199177;28;21083;-71
2022/07/06 01:14:31;;;;;;;;;;;17.70;99.90;;;;;;5204288;28;19924;-72
2022/07/06 01:17:04;;;;;;;;;;;17.70;99.90;;;;;;5216562;28;19959;-72
2022/07/06 01:19:36;;;;;;;;;;;17.70;99.90;;;;;;5222622;28;20280;-71
2022/07/06 01:22:09;;;;;;;;;;;17.70;99.90;;;;;;5218279;28;20267;-72
2022/07/06 01:24:42;;;;;;;;;;;17.70;99.90;;;;;;5218079;28;20377;-71
2022/07/06 01:27:15;;;;;;;;;;;17.70;99.90;;;;;;5207585;28;20295;-71
2022/07/06 01:29:47;;;;;;;;;;;17.60;99.90;;;;;;5208411;28;19941;-72
2022/07/06 01:32:19;;;;;;;;;;;17.60;99.90;;;;;;5208073;28;19935;-70
2022/07/06 01:34:52;;;;;;;;;;;17.70;99.90;;;;;;5204899;28;19931;-72
2022/07/06 01:37:25;;;;;;;;;;;17.90;99.90;;;;;;5222907;28;19924;-71
2022/07/06 01:39:58;;;;;;;;;;;;;;;;;;5197005;28;20295;-72
2022/07/06 01:42:30;;;;;;;;;;;;;;;;;;5180795;28;20038;-71
2022/07/06 01:45:03;;;;;;;;;;;;;;;;;;5218438;28;19924;-71
2022/07/06 01:47:35;;;;;;;;;;;17.60;99.90;;;;;;5196764;28;19925;-71
2022/07/06 01:50:08;;;;;;;;;;;17.50;99.90;;;;;;5201722;28;19935;-73
2022/07/06 01:52:45;;;;;;;;;;;17.40;99.90;;;;;;5217175;28;20450;-71
2022/07/06 01:55:17;;;;;;;;;;;17.40;99.90;;;;;;5188285;28;19924;-70
2022/07/06 01:57:50;;;;;;;;;;;17.20;99.90;;;;;;5194678;28;19932;-70
2022/07/06 02:00:22;;;;;;;;;;;17.20;99.90;;;;;;5201980;28;19952;-71
2022/07/06 02:02:56;;;;;;;;;;;;;;;;;;5195816;28;19928;-71
2022/07/06 02:05:28;;;;;;;;;;;;;;;;;;5218143;28;19935;-71
2022/07/06 02:08:01;;;;;;;;;;;;;;;;;;5219412;28;19921;-72
2022/07/06 02:10:34;;;;;;;;;;;;;;;;;;5214344;28;19928;-72
2022/07/06 02:13:06;;;;;;;;;;;;;;;;;;5214875;28;19928;-71
2022/07/06 02:15:39;;;;;;;;;;;17.20;99.90;;;;;;5187662;28;19925;-71
2022/07/06 02:18:11;;;;;;;;;;;17.20;99.90;;;;;;5195191;28;20314;-71
2022/07/06 02:20:44;;;;;;;;;;;17.10;99.90;;;;;;5202205;28;19944;-72
2022/07/06 02:23:16;;;;;;;;;;;17.10;99.90;;;;;;5213324;28;19931;-71
2022/07/06 02:25:49;;;;;;;;;;;17.00;99.90;;;;;;5213792;28;19925;-71
2022/07/06 02:28:22;;;;;;;;;;;17.00;99.90;;;;;;5203231;28;19920;-72
2022/07/06 02:30:55;;;;;;;;;;;17.00;99.90;;;;;;5198501;28;19931;-72
2022/07/06 02:33:28;;;;;;;;;;;16.90;99.90;;;;;;5197011;28;20413;-71
2022/07/06 02:36:01;;;;;;;;;;;;;;;;;;5205411;28;19931;-71
2022/07/06 02:38:33;;;;;;;;;;;16.90;99.90;;;;;;5216837;28;20349;-72
2022/07/06 02:41:05;;;;;;;;;;;17.00;99.90;;;;;;5220019;28;23348;-72
2022/07/06 02:43:39;;;;;;;;;;;16.90;99.90;;;;;;5198412;28;20458;-72
2022/07/06 02:46:11;;;;;;;;;;;16.90;99.90;;;;;;5213750;28;19935;-72
2022/07/06 02:48:46;;;;;;;;;;;;;;;;;;5213095;28;19929;-70
2022/07/06 02:51:18;;;;;;;;;;;;;;;;;;5199258;28;19939;-72
2022/07/06 02:53:51;;;;;;;;;;;;;;;;;;5196134;28;20031;-72
2022/07/06 02:56:24;;;;;;;;;;;;;;;;;;5219099;28;19928;-72
2022/07/06 02:58:57;;;;;;;;;;;;;;;;;;5182226;28;20321;-72
2022/07/06 03:01:29;;;;;;;;;;;;;;;;;;5210923;28;19940;-73
2022/07/06 03:04:02;;;;;;;;;;;;;;;;;;5215333;28;20391;-73
2022/07/06 03:06:35;;;;;;;;;;;;;;;;;;5192891;28;19924;-73
2022/07/06 03:09:07;;;;;;;;;;;16.80;99.90;;;;;;5193427;28;20341;-73
2022/07/06 03:11:40;;;;;;;;;;;16.80;99.90;;;;;;5205956;28;19924;-70
2022/07/06 03:14:13;;;;;;;;;;;16.70;99.90;;;;;;5214221;28;19929;-70
2022/07/06 03:16:48;;;;;;;;;;;16.60;99.90;;;;;;5206589;28;20602;-71
2022/07/06 03:19:23;;;;;;;;;;;16.60;99.90;;;;;;5196842;28;19925;-70
2022/07/06 03:21:56;;;;;;;;;;;16.60;99.90;;;;;;5176948;28;20307;-72
2022/07/06 03:24:29;;;;;;;;;;;16.60;99.90;;;;;;5198567;28;20311;-71
2022/07/06 03:27:01;;;;;;;;;;;14.60;99.90;;;;;;5217822;28;20355;-70
2022/07/06 03:29:33;;;;;;;;;;;16.50;99.90;;;;;;5217330;28;19928;-71
2022/07/06 03:32:07;;;;;;;;;;;;;;;;;;5192265;28;19935;-71
2022/07/06 03:34:39;;;;;;;;;;;;;;;;;;5209452;28;19996;-71
2022/07/06 03:37:12;;;;;;;;;;;;;;;;;;5221078;28;19920;-71
2022/07/06 03:39:46;;;;;;;;;;;;;;;;;;5208681;28;19928;-71
2022/07/06 03:42:18;;;;;;;;;;;;;;;;;;5205257;28;20379;-71
2022/07/06 03:44:51;;;;;;;;;;;16.50;99.90;;;;;;5212413;28;19928;-70
2022/07/06 03:47:23;;;;;;;;;;;16.50;99.90;;;;;;5196514;28;22010;-71
2022/07/06 03:49:56;;;;;;;;;;;16.50;99.90;;;;;;5186101;28;19924;-70
2022/07/06 03:52:28;;;;;;;;;;;16.50;99.90;;;;;;5212039;28;19924;-71
2022/07/06 03:55:01;;;;;;;;;;;16.50;99.90;;;;;;5192367;28;20198;-72
2022/07/06 03:57:35;;;;;;;;;;;16.50;99.90;;;;;;5218302;28;19924;-71
2022/07/06 04:00:10;;;;;;;;;;;16.60;99.90;;;;;;5182387;28;20376;-72
2022/07/06 04:02:48;;;;;;;;;;;16.50;99.90;;;;;;5219690;28;19924;-72
2022/07/06 04:05:26;;;;;;;;;;;16.60;99.90;;;;;;5200867;28;19943;-72
2022/07/06 04:07:59;;;;;;;;;;;16.50;99.90;;;;;;5191606;28;19928;-70
2022/07/06 04:10:39;;;;;;;;;;;16.50;99.90;;;;;;5222939;28;19925;-71
2022/07/06 04:13:11;;;;;;;;;;;16.50;99.90;;;;;;5203563;28;20457;-69
2022/07/06 04:15:44;;;;;;;;;;;16.50;99.90;;;;;;5202762;28;20382;-70
2022/07/06 04:18:17;;;;;;;;;;;16.60;99.90;;;;;;5205397;28;19924;-71
2022/07/06 04:20:57;;;;;;;;;;;16.60;99.90;;;;;;5189127;28;19988;-71
2022/07/06 04:23:31;;;;;;;;;;;16.60;99.90;;;;;;5194259;28;20611;-71
2022/07/06 04:26:05;;;;;;;;;;;16.70;99.90;;;;;;5202729;28;19931;-70
2022/07/06 04:28:41;;;;;;;;;;;16.70;99.90;;;;;;5188890;28;20455;-70
2022/07/06 04:31:15;;;;;;;;;;;16.70;99.90;;;;;;5195831;28;19969;-70
2022/07/06 04:33:50;;;;;;;;;;;16.80;99.90;;;;;;5197840;28;19931;-71
2022/07/06 04:36:22;;;;;;;;;;;16.80;99.90;;;;;;5179594;28;19963;-70
2022/07/06 04:38:55;;;;;;;;;;;16.80;99.90;;;;;;5188368;28;19940;-72
2022/07/06 04:41:28;;;;;;;;;;;16.90;99.90;;;;;;5196458;28;20323;-71
2022/07/06 04:44:01;;;;;;;;;;;16.90;99.90;;;;;;5169674;28;20277;-70
2022/07/06 04:46:33;;;;;;;;;;;17.00;99.90;;;;;;5187826;28;19936;-70
2022/07/06 04:49:06;;;;;;;;;;;17.10;99.90;;;;;;5205412;28;19924;-72
2022/07/06 04:51:39;;;;;;;;;;;17.00;99.90;;;;;;5169137;28;19946;-71
2022/07/06 04:54:12;;;;;;;;;;;17.00;99.90;;;;;;5193698;28;19924;-70
2022/07/06 04:56:46;;;;;;;;;;;17.00;99.90;;;;;;5187687;28;20184;-70
2022/07/06 04:59:19;;;;;;;;;;;17.10;99.90;;;;;;5173877;28;19925;-70
2022/07/06 05:01:51;;;;;;;;;;;17.20;99.90;;;;;;5168353;28;19928;-69
2022/07/06 05:04:24;;;;;;;;;;;17.30;99.90;;;;;;5156707;28;20016;-70
2022/07/06 05:06:57;;;;;;;;;;;17.30;99.90;;;;;;5173857;28;19928;-70
2022/07/06 05:09:29;;;;;;;;;;;17.30;99.90;;;;;;5189962;28;19932;-70
2022/07/06 05:12:02;;;;;;;;;;;17.40;99.90;;;;;;5189179;28;19932;-72
2022/07/06 05:14:35;;;;;;;;;;;17.40;99.90;;;;;;5194932;28;20362;-71
2022/07/06 05:17:10;;;;;;;;;;;17.30;99.90;;;;;;5167547;28;19925;-73
2022/07/06 05:19:43;;;;;;;;;;;17.40;99.90;;;;;;5170183;28;25193;-70
2022/07/06 05:22:15;;;;;;;;;;;17.40;99.90;;;;;;5169432;28;19954;-71
2022/07/06 05:24:48;;;;;;;;;;;17.50;99.90;;;;;;5187180;28;20271;-73
2022/07/06 05:27:20;;;;;;;;;;;17.70;99.90;;;;;;5187796;28;20215;-71
2022/07/06 05:29:53;;;;;;;;;;;17.80;99.90;;;;;;5186386;28;19924;-71
2022/07/06 05:32:26;;;;;;;;;;;17.90;99.90;;;;;;5199257;28;19924;-71
2022/07/06 05:34:59;;;;;;;;;;;18.00;99.90;;;;;;5193936;28;20376;-71
2022/07/06 05:37:51;;;;;;;;;;;18.10;99.90;;;;;;5194090;28;20388;-73
2022/07/06 05:40:24;;;;;;;;;;;18.10;99.90;;;;;;5204674;28;19931;-70
2022/07/06 05:42:57;;;;;;;;;;;18.40;99.90;;;;;;5190857;28;19928;-72
2022/07/06 05:45:29;;;;;;;;;;;18.50;99.90;;;;;;5173097;28;24337;-71
2022/07/06 05:50:54;;;;;;;;;;;18.70;99.20;;;;;;5182601;28;19925;-70
2022/07/06 05:53:27;;;;;;;;;;;18.70;97.40;;;;;;5186193;28;20402;-71
2022/07/06 05:56:01;;;;;;;;;;;18.80;97.20;;;;;;5203826;28;20352;-71
2022/07/06 05:58:36;;;;;;;;;;;18.90;96.40;;;;;;5222189;28;20190;-71
2022/07/06 06:01:09;;;;;;;;;;;18.80;96.10;;;;;;5212299;28;19992;-72
2022/07/06 06:03:43;;;;;;;;;;;18.90;95.40;;;;;;5228114;28;19925;-71
2022/07/06 06:06:17;;;;;;;;;;;18.90;94.20;;;;;;5206590;28;20399;-73
2022/07/06 06:08:50;;;;;;;;;;;18.90;94.60;;;;;;5202712;28;19924;-73
2022/07/06 06:11:22;;;;;;;;;;;19.00;94.90;;;;;;5220139;28;19925;-71
2022/07/06 06:13:54;;;;;;;;;;;19.10;93.80;;;;;;5206002;28;19929;-71
2022/07/06 06:16:27;;;;;;;;;;;19.30;94.50;;;;;;5198014;28;19927;-72
2022/07/06 06:19:00;;;;;;;;;;;19.40;93.90;;;;;;5206688;28;19924;-72
2022/07/06 06:21:32;;;;;;;;;;;19.40;91.30;;;;;;5194180;28;19963;-71
2022/07/06 06:24:05;;;;;;;;;;;19.50;91.60;;;;;;5207412;28;19925;-71
2022/07/06 06:26:37;;;;;;;;;;;19.60;90.30;;;;;;5217005;28;19924;-72
2022/07/06 06:29:09;;;;;;;;;;;19.60;90.30;;;;;;5219553;28;19999;-75
2022/07/06 06:31:43;;;;;;;;;;;19.80;90.30;;;;;;5211634;28;19924;-71
2022/07/06 06:34:16;;;;;;;;;;;19.80;86.30;;;;;;5211220;28;20272;-72
2022/07/06 06:36:48;;;;;;;;;;;19.90;87.60;;;;;;5210663;28;19928;-72
2022/07/06 06:39:20;;;;;;;;;;;20.00;84.30;;;;;;5213013;28;19935;-72
2022/07/06 06:41:52;;;;;;;;;;;20.00;83.20;;;;;;5213368;28;19932;-73
2022/07/06 06:44:25;;;;;;;;;;;20.10;83.30;;;;;;5217174;28;19929;-70
2022/07/06 06:46:57;;;;;;;;;;;20.00;82.60;;;;;;5221999;28;19929;-72
2022/07/06 06:49:34;;;;;;;;;;;20.10;82.20;;;;;;5208843;28;19936;-70
2022/07/06 06:52:07;;;;;;;;;;;20.10;82.90;;;;;;5231879;28;19925;-72
2022/07/06 06:55:02;;;;;;;;;;;20.30;83.40;;;;;;5218804;28;19928;-72
2022/07/06 06:57:35;;;;;;;;;;;20.30;81.70;;;;;;5210936;28;19931;-72
2022/07/06 07:00:12;;;;;;;;;;;20.40;83.40;;;;;;5202731;28;19924;-70
2022/07/06 07:02:47;;;;;;;;;;;20.50;81.50;;;;;;5223428;28;20012;-72
2022/07/06 07:05:19;;;;;;;;;;;20.60;82.30;;;;;;5208702;28;20242;-71
2022/07/06 07:07:54;;;;;;;;;;;20.80;81.80;;;;;;5227231;28;19924;-73
2022/07/06 07:10:34;;;;;;;;;;;20.80;81.00;;;;;;5226018;28;19948;-72
2022/07/06 07:13:07;;;;;;;;;;;20.90;80.60;;;;;;5238976;28;20437;-71
2022/07/06 07:15:40;;;;;;;;;;;21.00;78.50;;;;;;5223953;28;19924;-72
2022/07/06 07:18:16;;;;;;;;;;;20.90;78.00;;;;;;5204909;28;20200;-70
2022/07/06 07:20:49;;;;;;;;;;;21.10;77.80;;;;;;5209663;28;20237;-71
2022/07/06 07:23:27;;;;;;;;;;;21.00;76.00;;;;;;5241623;28;19925;-71
2022/07/06 07:26:00;;;;;;;;;;;21.10;74.90;;;;;;5234556;28;19925;-70
2022/07/06 07:28:33;;;;;;;;;;;21.10;75.90;;;;;;5243634;28;19924;-71
2022/07/06 07:31:10;;;;;;;;;;;21.20;74.20;;;;;;5197564;28;19931;-71
2022/07/06 07:33:43;;;;;;;;;;;21.20;75.10;;;;;;5236994;28;20101;-70
2022/07/06 07:36:16;;;;;;;;;;;21.30;74.50;;;;;;5222280;28;19936;-70
2022/07/06 07:38:49;;;;;;;;;;;21.30;74.10;;;;;;5229502;28;25590;-70
2022/07/06 07:41:23;;;;;;;;;;;21.40;74.00;;;;;;5237511;28;20507;-70
2022/07/06 07:43:56;;;;;;;;;;;21.70;74.30;;;;;;5200998;28;20100;-70
2022/07/06 07:46:31;;;;;;;;;;;21.80;72.00;;;;;;5226455;28;19929;-70
2022/07/06 07:49:12;;;;;;;;;;;21.70;69.70;;;;;;5221364;28;19936;-71
2022/07/06 07:51:52;;;;;;;;;;;21.80;69.00;;;;;;5224683;28;19924;-71
2022/07/06 07:54:25;;;;;;;;;;;21.70;70.80;;;;;;5228534;28;19931;-72
2022/07/06 07:57:01;;;;;;;;;;;21.80;71.90;;;;;;5218767;28;20362;-71
2022/07/06 07:59:34;;;;;;;;;;;21.90;71.30;;;;;;5205242;28;19962;-71
2022/07/06 08:02:08;;;;;;;;;;;22.00;70.70;;;;;;5197894;28;25568;-71
2022/07/06 08:04:44;;;;;;;;;;;21.90;69.30;;;;;;5203909;28;20195;-70
2022/07/06 08:07:20;;;;;;;;;;;22.20;70.90;;;;;;5225436;28;19932;-71
2022/07/06 08:09:53;;;;;;;;;;;22.30;69.90;;;;;;5237437;28;19928;-70
2022/07/06 08:12:26;;;;;;;;;;;22.40;70.20;;;;;;5237684;28;20630;-71
2022/07/06 08:15:03;;;;;;;;;;;22.60;68.00;;;;;;5243707;28;19932;-71
2022/07/06 08:17:35;;;;;;;;;;;22.60;69.30;;;;;;5247689;28;19925;-70
2022/07/06 08:20:08;;;;;;;;;;;22.60;69.30;;;;;;5196446;28;19935;-70
2022/07/06 08:22:41;;;;;;;;;;;22.90;67.80;;;;;;5226338;28;19936;-71
2022/07/06 08:25:17;;;;;;;;;;;23.10;64.60;;;;;;5248869;28;19930;-70
2022/07/06 08:27:51;;;;;;;;;;;22.90;64.00;;;;;;5215362;28;19924;-70
2022/07/06 08:30:29;;;;;;;;;;;23.00;64.00;;;;;;5233266;28;19928;-70
2022/07/06 08:33:08;;;;;;;;;;;22.70;62.10;;;;;;5246719;28;19924;-70
2022/07/06 08:35:43;;;;;;;;;;;22.90;63.20;;;;;;5222157;28;19939;-70
2022/07/06 08:38:22;;;;;;;;;;;22.90;61.20;;;;;;5235553;28;19930;-72
2022/07/06 08:40:56;;;;;;;;;;;22.80;60.60;;;;;;5233508;28;19935;-70
2022/07/06 08:43:30;;;;;;;;;;;23.10;62.40;;;;;;5208135;28;20134;-70
2022/07/06 08:46:15;;;;;;;;;;;23.10;60.50;;;;;;5222517;28;19920;-70
2022/07/06 08:48:51;;;;;;;;;;;23.00;61.00;;;;;;5221138;28;19924;-71
2022/07/06 08:51:29;;;;;;;;;;;23.20;60.20;;;;;;5225398;28;19919;-70
2022/07/06 08:54:04;;;;;;;;;;;23.20;59.90;;;;;;5214025;28;19924;-70
2022/07/06 08:56:40;;;;;;;;;;;23.40;60.90;;;;;;5245979;28;19924;-71
2022/07/06 08:59:19;;;;;;;;;;;23.40;60.00;;;;;;5228365;28;19925;-70
2022/07/06 09:01:54;;;;;;;;;;;23.50;60.70;;;;;;5201212;28;19915;-71
2022/07/06 09:04:29;;;;;;;;;;;23.60;62.30;;;;;;5240232;28;19916;-71
2022/07/06 09:07:04;;;;;;;;;;;23.50;61.70;;;;;;5223514;28;19924;-71
2022/07/06 09:09:39;;;;;;;;;;;23.20;60.90;;;;;;5233584;28;20277;-70
2022/07/06 09:12:15;;;;;;;;;;;23.30;61.90;;;;;;5227659;28;19925;-70
2022/07/06 09:14:49;;;;;;;;;;;23.40;60.50;;;;;;5199388;28;19939;-70
2022/07/06 09:17:25;;;;;;;;;;;23.50;60.60;;;;;;5239307;28;19931;-70
2022/07/06 09:19:58;;;;;;;;;;;23.50;60.80;;;;;;5224673;28;19924;-71
2022/07/06 09:22:38;;;;;;;;;;;23.50;60.70;;;;;;5232791;28;19928;-70
2022/07/06 09:25:12;;;;;;;;;;;23.60;62.90;;;;;;5224311;28;19916;-71
2022/07/06 09:27:54;;;;;;;;;;;23.60;59.80;;;;;;5240517;28;20365;-71
2022/07/06 09:30:27;;;;;;;;;;;23.50;61.60;;;;;;5240923;28;19925;-71
2022/07/06 09:33:02;;;;;;;;;;;23.70;62.30;;;;;;5226332;28;19925;-71
2022/07/06 09:35:36;;;;;;;;;;;23.90;61.20;;;;;;5236601;28;19931;-71
2022/07/06 09:38:13;;;;;;;;;;;23.80;59.60;;;;;;5216429;28;19920;-70
2022/07/06 09:40:50;;;;;;;;;;;23.50;59.50;;;;;;5200104;28;19928;-70
2022/07/06 09:43:26;;;;;;;;;;;23.50;59.80;;;;;;5223610;28;19931;-72
2022/07/06 09:45:59;;;;;;;;;;;23.40;60.50;;;;;;5229513;28;19929;-71
2022/07/06 09:48:34;;;;;;;;;;;23.40;59.90;;;;;;5206722;28;19928;-73
2022/07/06 09:51:09;;;;;;;;;;;23.60;62.20;;;;;;5217632;28;19920;-70
2022/07/06 09:53:42;;;;;;;;;;;23.80;61.50;;;;;;5216669;28;19928;-70
2022/07/06 09:56:17;;;;;;;;;;;24.00;62.00;;;;;;5198521;28;19924;-72
2022/07/06 09:58:51;;;;;;;;;;;24.00;61.60;;;;;;5221351;28;19931;-70
2022/07/06 10:01:35;;;;;;;;;;;24.30;60.30;;;;;;5245326;28;19924;-72
2022/07/06 10:04:12;;;;;;;;;;;24.10;58.10;;;;;;5225513;28;20370;-72
2022/07/06 10:06:51;;;;;;;;;;;24.10;56.10;;;;;;5210081;28;19930;-70
2022/07/06 10:09:26;;;;;;;;;;;24.10;56.70;;;;;;5224576;28;19920;-71
2022/07/06 10:12:08;;;;;;;;;;;24.00;58.60;;;;;;5236554;28;19928;-70
2022/07/06 10:14:51;;;;;;;;;;;24.00;58.90;;;;;;5247035;28;19928;-71
2022/07/06 10:17:26;;;;;;;;;;;24.20;58.80;;;;;;5245464;28;19924;-72
2022/07/06 10:20:00;;;;;;;;;;;24.40;58.60;;;;;;5244117;28;20382;-70
2022/07/06 10:22:39;;;;;;;;;;;24.60;58.10;;;;;;5253601;28;19928;-70
2022/07/06 10:25:13;;;;;;;;;;;24.50;58.10;;;;;;5241410;28;19927;-69
2022/07/06 10:27:51;;;;;;;;;;;24.40;57.20;;;;;;5246285;28;19916;-71
2022/07/06 10:30:28;;;;;;;;;;;24.40;57.80;;;;;;5238197;28;19931;-70
2022/07/06 10:33:02;;;;;;;;;;;24.60;58.10;;;;;;5214930;28;19924;-71
2022/07/06 10:35:35;;;;;;;;;;;24.90;56.00;;;;;;5193659;28;19928;-71
2022/07/06 10:38:08;;;;;;;;;;;25.10;56.60;;;;;;5229042;28;19940;-72
2022/07/06 10:43:37;;;;;;;;;;;26.00;55.00;;;;;;5238650;28;20327;-72
2022/07/06 10:46:13;;;;;;;;;;;26.10;54.90;;;;;;5234980;28;20418;-71
2022/07/06 10:48:47;;;;;;;;;;;26.20;52.60;;;;;;5237094;28;19928;-70
2022/07/06 10:55:41;;;;;;;;;;;26.20;51.80;;;;;;5243440;28;19928;-71
2022/07/06 10:59:29;;;;;;;;;;;26.60;53.60;;;;;;5194274;28;19914;-70
2022/07/06 11:02:37;;;;;;;;;;;27.00;52.60;;;;;;5254388;28;19935;-71
2022/07/06 11:05:14;;;;;;;;;;;27.00;51.00;;;;;;5229851;28;19916;-72
2022/07/06 11:07:49;;;;;;;;;;;26.80;50.10;;;;;;5238548;28;19928;-71
2022/07/06 11:10:23;;;;;;;;;;;27.00;51.60;;;;;;5250454;28;19916;-71
2022/07/06 11:13:02;;;;;;;;;;;26.80;50.80;;;;;;5244726;28;20451;-72
2022/07/06 11:15:48;;;;;;;;;;;27.30;51.60;;;;;;5245502;28;20524;-73
2022/07/06 11:18:22;;;;;;;;;;;27.60;52.00;;;;;;5220158;28;19935;-72
2022/07/06 11:21:20;;;;;;;;;;;27.60;50.30;;;;;;5240096;28;19928;-72
2022/07/06 11:27:13;;;;;;;;;;;26.40;52.40;;;;;;5163359;28;19912;-70
2022/07/06 11:29:49;;;;;;;;;;;26.80;52.00;;;;;;5244695;28;20351;-72
2022/07/06 11:32:29;;;;;;;;;;;26.90;50.60;;;;;;5226578;28;19934;-71
2022/07/06 11:35:09;;;;;;;;;;;26.40;48.80;;;;;;5247449;28;19924;-70
2022/07/06 11:37:55;;;;;;;;;;;26.50;49.40;;;;;;5255622;28;19920;-71
2022/07/06 11:40:30;;;;;;;;;;;26.90;50.90;;;;;;5244239;28;19917;-68
2022/07/06 11:43:21;;;;;;;;;;;27.40;50.60;;;;;;5227799;28;19916;-69
2022/07/06 11:46:51;;;;;;;;;;;27.60;48.10;;;;;;5135989;28;19930;-70
2022/07/06 11:50:16;;;;;;;;;;;27.50;49.50;;;;;;5170600;28;19970;-69
2022/07/06 11:53:16;;;;;;;;;;;27.80;50.90;;;;;;5175129;28;19957;-71
2022/07/06 11:56:03;;;;;;;;;;;28.10;47.50;;;;;;5157147;28;19909;-69
2022/07/06 12:03:03;;;;;;;;;;;28.10;45.50;;;;;;5063830;29;19931;-71
2022/07/06 12:05:41;;;;;;;;;;;28.50;45.70;;;;;;5087330;28;19925;-70
2022/07/06 12:08:33;;;;;;;;;;;28.90;45.60;;;;;;5127151;28;19917;-70
2022/07/06 12:11:35;;;;;;;;;;;29.30;45.00;;;;;;5168101;28;20814;-70
2022/07/06 12:14:17;;;;;;;;;;;28.70;44.70;;;;;;5238612;28;19935;-71
2022/07/06 12:16:53;;;;;;;;;;;29.60;47.90;;;;;;5205683;28;20146;-70
2022/07/06 12:19:42;;;;;;;;;;;;;;;;;;;;;
2022/07/06 12:23:12;;;;;;;;;;;29.50;44.50;;;;;;5230189;28;19935;-70
2022/07/06 12:26:34;;;;;;;;;;;29.60;45.20;;;;;;5236168;28;19924;-70
2022/07/06 12:29:27;;;;;;;;;;;30.00;45.90;;;;;;5133481;28;19926;-69
2022/07/06 12:32:31;;;;;;;;;;;29.70;45.30;;;;;;5218854;28;19928;-71
2022/07/06 12:35:29;;;;;;;;;;;30.20;45.30;;;;;;5197778;28;19916;-70
2022/07/06 12:38:12;;;;;;;;;;;29.50;45.10;;;;;;5174364;28;19928;-71
2022/07/06 12:40:50;;;;;;;;;;;28.50;45.30;;;;;;5197481;28;19925;-70
2022/07/06 12:43:35;;;;;;;;;;;27.90;47.50;;;;;;5152236;28;19932;-73
2022/07/06 12:46:37;;;;;;;;;;;27.70;45.00;;;;;;5142882;28;19932;-70
2022/07/06 12:49:26;;;;;;;;;;;27.70;44.60;;;;;;5188562;28;20093;-70
2022/07/06 12:52:16;;;;;;;;;;;28.60;46.40;;;;;;5153632;28;19971;-71
2022/07/06 12:56:21;;;;;;;;;;;29.50;46.90;;;;;;5208167;28;19928;-70
2022/07/06 12:59:03;;;;;;;;;;;30.00;44.90;;;;;;5225698;28;19916;-70
2022/07/06 13:01:46;;;;;;;;;;;29.90;44.00;;;;;;5258588;28;20369;-70
2022/07/06 13:04:27;;;;;;;;;;;29.70;46.20;;;;;;5240293;28;19935;-70
2022/07/06 13:07:38;;;;;;;;;;;29.90;46.90;;;;;;5239557;28;19935;-69
2022/07/06 13:10:27;;;;;;;;;;;29.60;43.40;;;;;;5243760;28;19978;-69
2022/07/06 13:13:17;;;;;;;;;;;29.80;42.10;;;;;;5227941;28;19917;-68
2022/07/06 13:16:10;;;;;;;;;;;30.40;45.70;;;;;;5218469;28;19924;-69
2022/07/06 13:18:54;;;;;;;;;;;30.00;42.80;;;;;;5237465;28;20195;-70
2022/07/06 13:21:54;;;;;;;;;;;29.20;44.80;;;;;;5242013;28;19928;-69
2022/07/06 13:24:53;;;;;;;;;;;28.30;46.10;;;;;;5239262;28;19932;-69
2022/07/06 13:27:38;;;;;;;;;;;28.30;46.00;;;;;;5241141;28;19924;-69
2022/07/06 13:30:22;;;;;;;;;;;29.20;46.10;;;;;;5237326;28;19916;-69
2022/07/06 13:33:19;;;;;;;;;;;29.20;43.70;;;;;;5155120;28;19924;-69
2022/07/06 13:39:02;;;;;;;;;;;30.00;44.70;;;;;;5139084;28;19928;-70
2022/07/06 13:41:40;;;;;;;;;;;29.90;43.50;;;;;;5147258;28;19929;-70
2022/07/06 13:45:41;;;;;;;;;;;30.50;46.00;;;;;;5091915;28;19922;-71
2022/07/06 13:51:41;;;;;;;;;;;29.80;43.90;;;;;;5092711;29;19938;-70
2022/07/06 13:54:17;;;;;;;;;;;30.10;43.20;;;;;;5100270;28;20044;-71
2022/07/06 13:56:55;;;;;;;;;;;29.80;43.00;;;;;;5091176;29;20287;-71
2022/07/06 13:59:30;;;;;;;;;;;29.60;43.30;;;;;;5096280;29;20586;-71
2022/07/06 14:02:03;;;;;;;;;;;29.70;43.40;;;;;;5084968;29;20004;-71
2022/07/06 14:04:39;;;;;;;;;;;29.60;43.20;;;;;;5100867;29;20242;-71
2022/07/06 14:07:17;;;;;;;;;;;29.60;44.50;;;;;;5097750;28;19931;-71
2022/07/06 14:09:52;;;;;;;;;;;28.90;43.80;;;;;;5103523;28;19921;-70
2022/07/06 14:13:10;;;;;;;;;;;28.20;43.00;;;;;;5092682;28;19926;-70
2022/07/06 14:15:50;;;;;;;;;;;28.30;45.40;;;;;;5129735;28;19926;-71
2022/07/06 14:18:24;;;;;;;;;;;28.90;44.40;;;;;;5148304;28;20300;-70
2022/07/06 14:21:09;;;;;;;;;;;29.70;44.20;;;;;;5123288;28;19926;-70
2022/07/06 14:23:48;;;;;;;;;;;30.20;43.20;;;;;;5150732;28;20302;-70
2022/07/06 14:26:23;;;;;;;;;;;29.80;43.10;;;;;;5147391;28;20343;-71
2022/07/06 14:28:56;;;;;;;;;;;29.30;42.30;;;;;;5144606;28;19926;-73
2022/07/06 14:31:28;;;;;;;;;;;29.10;43.90;;;;;;5230014;28;19923;-71
2022/07/06 14:34:02;;;;;;;;;;;29.10;43.80;;;;;;5223084;28;20281;-69
2022/07/06 14:36:38;;;;;;;;;;;29.10;44.00;;;;;;5230966;28;19923;-72
2022/07/06 14:39:14;;;;;;;;;;;29.60;45.30;;;;;;5210020;28;19988;-71
2022/07/06 14:41:47;;;;;;;;;;;29.70;45.30;;;;;;5222930;28;20338;-71
2022/07/06 14:44:24;;;;;;;;;;;29.90;43.40;;;;;;5206860;28;19951;-71
2022/07/06 14:47:08;;;;;;;;;;;29.60;42.80;;;;;;5223221;28;19924;-69
2022/07/06 14:49:55;;;;;;;;;;;28.90;43.30;;;;;;5232726;28;19940;-71
2022/07/06 14:52:49;;;;;;;;;;;28.80;42.90;;;;;;5196137;28;19924;-68
2022/07/06 14:55:31;;;;;;;;;;;28.80;45.50;;;;;;5213006;28;19925;-71
2022/07/06 14:58:17;;;;;;;;;;;29.10;43.80;;;;;;5209306;28;19923;-70
2022/07/06 15:00:52;;;;;;;;;;;29.70;44.60;;;;;;5234089;28;19924;-70
2022/07/06 15:03:30;;;;;;;;;;;29.80;42.80;;;;;;5229690;28;19920;-71
2022/07/06 15:06:06;;;;;;;;;;;29.50;43.30;;;;;;5206686;28;19924;-70
2022/07/06 15:09:19;;;;;;;;;;;29.10;43.70;;;;;;5219578;28;19935;-71
2022/07/06 15:11:57;;;;;;;;;;;29.40;45.40;;;;;;5218095;28;20078;-71
2022/07/06 15:14:31;;;;;;;;;;;29.40;42.10;;;;;;5188860;28;20024;-73
2022/07/06 15:17:08;;;;;;;;;;;29.70;43.60;;;;;;5207960;28;19928;-72
2022/07/06 15:20:02;;;;;;;;;;;29.80;44.40;;;;;;5232646;28;19920;-73
2022/07/06 15:22:39;;;;;;;;;;;29.80;43.60;;;;;;5213442;28;19925;-73
2022/07/06 15:25:14;;;;;;;;;;;29.90;42.00;;;;;;5214978;28;19932;-70
2022/07/06 15:30:52;;;;;;;;;;;29.60;42.30;;;;;;5206394;28;19924;-70
2022/07/06 15:33:36;;;;;;;;;;;29.30;43.10;;;;;;5245323;28;19929;-73
2022/07/06 15:36:09;;;;;;;;;;;29.30;43.50;;;;;;5243400;28;19924;-73
2022/07/06 15:39:07;;;;;;;;;;;29.40;42.80;;;;;;5248801;28;19939;-72
2022/07/06 15:41:53;;;;;;;;;;;29.70;42.20;;;;;;5244202;28;19931;-72
2022/07/06 15:44:26;;;;;;;;;;;29.90;41.80;;;;;;5249911;28;19928;-70
2022/07/06 15:47:04;;;;;;;;;;;29.80;42.70;;;;;;5250845;28;19924;-72
2022/07/06 15:49:56;;;;;;;;;;;29.70;42.20;;;;;;5222311;28;19926;-70
2022/07/06 15:52:31;;;;;;;;;;;29.50;42.90;;;;;;5243941;28;19924;-69
2022/07/06 15:55:26;;;;;;;;;;;29.80;42.50;;;;;;5183642;28;20418;-71
2022/07/06 15:58:07;;;;;;;;;;;29.80;42.40;;;;;;5235563;28;20438;-71